sensor_id;sensor_type;location;lat;lon;timestamp;pressure;altitude;pressure_sealevel;temperature;humidity
69784;BME280;57054;51.978;4.498;2023-03-03T00:00:56;102584.19;;;3.20;92.08
69784;BME280;57054;51.978;4.498;2023-03-03T00:03:23;102591.06;;;3.20;92.24
69784;BME280;57054;51.978;4.498;2023-03-03T00:05:50;102588.47;;;3.20;92.26
69784;BME280;57054;51.978;4.498;2023-03-03T00:08:16;102585.03;;;3.19;92.12
69784;BME280;57054;51.978;4.498;2023-03-03T00:10:42;102581.56;;;3.19;92.73
69784;BME280;57054;51.978;4.498;2023-03-03T00:13:20;102582.38;;;3.16;92.25
69784;BME280;57054;51.978;4.498;2023-03-03T00:15:46;102587.53;;;3.15;92.44
69784;BME280;57054;51.978;4.498;2023-03-03T00:18:34;102593.56;;;3.14;92.27
69784;BME280;57054;51.978;4.498;2023-03-03T00:21:01;102593.53;;;3.12;92.32
69784;BME280;57054;51.978;4.498;2023-03-03T00:23:36;102593.50;;;3.11;92.24
69784;BME280;57054;51.978;4.498;2023-03-03T00:26:13;102589.16;;;3.10;92.24
69784;BME280;57054;51.978;4.498;2023-03-03T00:28:45;102591.75;;;3.10;92.35
69784;BME280;57054;51.978;4.498;2023-03-03T00:31:17;102596.94;;;3.10;92.50
69784;BME280;57054;51.978;4.498;2023-03-03T00:33:52;102591.72;;;3.08;92.45
69784;BME280;57054;51.978;4.498;2023-03-03T00:36:54;102602.91;;;3.07;92.61
69784;BME280;57054;51.978;4.498;2023-03-03T00:39:37;102593.41;;;3.06;92.54
69784;BME280;57054;51.978;4.498;2023-03-03T00:42:16;102600.28;;;3.04;92.68
69784;BME280;57054;51.978;4.498;2023-03-03T00:44:44;102599.41;;;3.03;92.73
69784;BME280;57054;51.978;4.498;2023-03-03T00:47:48;102596.78;;;3.02;92.91
69784;BME280;57054;51.978;4.498;2023-03-03T00:50:25;102593.31;;;3.01;92.89
69784;BME280;57054;51.978;4.498;2023-03-03T00:53:15;102587.28;;;3.01;92.98
69784;BME280;57054;51.978;4.498;2023-03-03T00:55:45;102596.78;;;3.02;92.90
69784;BME280;57054;51.978;4.498;2023-03-03T00:58:11;102585.53;;;3.00;92.93
69784;BME280;57054;51.978;4.498;2023-03-03T01:00:37;102588.97;;;2.99;93.05
69784;BME280;57054;51.978;4.498;2023-03-03T01:03:08;102593.25;;;2.97;93.10
69784;BME280;57054;51.978;4.498;2023-03-03T01:05:36;102591.50;;;2.96;93.06
69784;BME280;57054;51.978;4.498;2023-03-03T01:08:02;102588.00;;;2.94;93.07
69784;BME280;57054;51.978;4.498;2023-03-03T01:10:30;102588.78;;;2.90;92.85
69784;BME280;57054;51.978;4.498;2023-03-03T01:12:56;102594.78;;;2.87;93.01
69784;BME280;57054;51.978;4.498;2023-03-03T01:15:23;102591.28;;;2.85;92.97
69784;BME280;57054;51.978;4.498;2023-03-03T01:17:49;102592.94;;;2.81;92.95
69784;BME280;57054;51.978;4.498;2023-03-03T01:20:15;102597.22;;;2.79;92.99
69784;BME280;57054;51.978;4.498;2023-03-03T01:22:41;102591.97;;;2.76;93.08
69784;BME280;57054;51.978;4.498;2023-03-03T01:25:07;102597.16;;;2.76;93.28
69784;BME280;57054;51.978;4.498;2023-03-03T01:27:34;102590.28;;;2.77;93.26
69784;BME280;57054;51.978;4.498;2023-03-03T01:29:59;102587.69;;;2.78;93.48
69784;BME280;57054;51.978;4.498;2023-03-03T01:32:25;102592.88;;;2.77;93.44
69784;BME280;57054;51.978;4.498;2023-03-03T01:34:51;102595.44;;;2.77;93.53
69784;BME280;57054;51.978;4.498;2023-03-03T01:37:16;102588.50;;;2.76;93.58
69784;BME280;57054;51.978;4.498;2023-03-03T01:39:42;102597.09;;;2.75;93.50
69784;BME280;57054;51.978;4.498;2023-03-03T01:42:11;102596.25;;;2.74;93.41
69784;BME280;57054;51.978;4.498;2023-03-03T01:44:37;102599.69;;;2.73;93.44
69784;BME280;57054;51.978;4.498;2023-03-03T01:47:21;102597.94;;;2.72;93.49
69784;BME280;57054;51.978;4.498;2023-03-03T01:49:55;102597.94;;;2.72;93.63
69784;BME280;57054;51.978;4.498;2023-03-03T01:52:34;102604.78;;;2.70;93.57
69784;BME280;57054;51.978;4.498;2023-03-03T01:55:07;102600.44;;;2.69;93.32
69784;BME280;57054;51.978;4.498;2023-03-03T01:57:39;102594.44;;;2.70;93.66
69784;BME280;57054;51.978;4.498;2023-03-03T02:00:07;102598.75;;;2.69;93.67
69784;BME280;57054;51.978;4.498;2023-03-03T02:02:34;102591.84;;;2.70;93.89
69784;BME280;57054;51.978;4.498;2023-03-03T02:05:00;102598.75;;;2.69;93.91
69784;BME280;57054;51.978;4.498;2023-03-03T02:07:27;102590.09;;;2.69;93.94
69784;BME280;57054;51.978;4.498;2023-03-03T02:10:06;102590.09;;;2.69;93.91
69784;BME280;57054;51.978;4.498;2023-03-03T02:12:37;102597.03;;;2.70;94.10
69784;BME280;57054;51.978;4.498;2023-03-03T02:17:42;102587.53;;;2.71;94.13
69784;BME280;57054;51.978;4.498;2023-03-03T02:25:21;102588.38;;;2.68;94.24
69784;BME280;57054;51.978;4.498;2023-03-03T02:27:51;102585.78;;;2.68;94.24
69784;BME280;57054;51.978;4.498;2023-03-03T02:30:19;102585.78;;;2.68;94.25
69784;BME280;57054;51.978;4.498;2023-03-03T02:32:45;102584.03;;;2.67;94.23
69784;BME280;57054;51.978;4.498;2023-03-03T02:35:32;102588.34;;;2.66;94.32
69784;BME280;57054;51.978;4.498;2023-03-03T02:38:25;102584.94;;;2.67;94.34
69784;BME280;57054;51.978;4.498;2023-03-03T02:41:08;102584.00;;;2.65;94.40
69784;BME280;57054;51.978;4.498;2023-03-03T02:43:41;102581.41;;;2.65;94.37
69784;BME280;57054;51.978;4.498;2023-03-03T02:46:11;102577.94;;;2.65;94.32
69784;BME280;57054;51.978;4.498;2023-03-03T02:48:36;102580.50;;;2.63;94.43
69784;BME280;57054;51.978;4.498;2023-03-03T02:51:01;102580.47;;;2.62;94.35
69784;BME280;57054;51.978;4.498;2023-03-03T02:53:27;102584.78;;;2.61;94.46
69784;BME280;57054;51.978;4.498;2023-03-03T02:55:52;102576.16;;;2.61;94.55
69784;BME280;57054;51.978;4.498;2023-03-03T02:58:18;102578.75;;;2.61;94.60
69784;BME280;57054;51.978;4.498;2023-03-03T03:00:43;102584.78;;;2.61;94.65
69784;BME280;57054;51.978;4.498;2023-03-03T03:03:12;102577.06;;;2.63;94.71
69784;BME280;57054;51.978;4.498;2023-03-03T03:05:37;102587.44;;;2.64;94.78
69784;BME280;57054;51.978;4.498;2023-03-03T03:08:02;102583.09;;;2.63;94.84
69784;BME280;57054;51.978;4.498;2023-03-03T03:10:28;102590.00;;;2.63;94.86
69784;BME280;57054;51.978;4.498;2023-03-03T03:12:53;102594.34;;;2.64;95.15
69784;BME280;57054;51.978;4.498;2023-03-03T03:15:19;102595.22;;;2.66;95.10
69784;BME280;57054;51.978;4.498;2023-03-03T03:17:44;102589.16;;;2.65;95.09
69784;BME280;57054;51.978;4.498;2023-03-03T03:20:10;102595.19;;;2.64;95.09
69784;BME280;57054;51.978;4.498;2023-03-03T03:22:35;102591.75;;;2.64;95.11
69784;BME280;57054;51.978;4.498;2023-03-03T03:25:01;102594.34;;;2.64;95.07
69784;BME280;57054;51.978;4.498;2023-03-03T03:27:26;102597.72;;;2.61;95.18
69784;BME280;57054;51.978;4.498;2023-03-03T03:29:52;102597.63;;;2.58;95.03
69784;BME280;57054;51.978;4.498;2023-03-03T03:32:17;102598.44;;;2.54;95.02
69784;BME280;57054;51.978;4.498;2023-03-03T03:34:43;102600.06;;;2.50;95.37
69784;BME280;57054;51.978;4.498;2023-03-03T03:37:08;102606.00;;;2.45;95.76
69784;BME280;57054;51.978;4.498;2023-03-03T03:39:34;102601.69;;;2.44;95.99
69784;BME280;57054;51.978;4.498;2023-03-03T03:41:59;102606.78;;;2.41;96.57
69784;BME280;57054;51.978;4.498;2023-03-03T03:44:25;102599.81;;;2.38;96.67
69784;BME280;57054;51.978;4.498;2023-03-03T03:46:50;102596.34;;;2.38;96.80
69784;BME280;57054;51.978;4.498;2023-03-03T03:49:16;102601.50;;;2.36;97.30
69784;BME280;57054;51.978;4.498;2023-03-03T03:51:41;102604.06;;;2.36;97.47
69784;BME280;57054;51.978;4.498;2023-03-03T03:54:07;102606.66;;;2.36;97.55
69784;BME280;57054;51.978;4.498;2023-03-03T03:56:34;102604.13;;;2.38;97.73
69784;BME280;57054;51.978;4.498;2023-03-03T03:58:59;102606.78;;;2.41;97.91
69784;BME280;57054;51.978;4.498;2023-03-03T04:01:25;102602.50;;;2.43;98.08
69784;BME280;57054;51.978;4.498;2023-03-03T04:03:51;102602.53;;;2.44;98.27
69784;BME280;57054;51.978;4.498;2023-03-03T04:06:17;102607.72;;;2.44;98.23
69784;BME280;57054;51.978;4.498;2023-03-03T04:08:42;102608.50;;;2.42;98.44
69784;BME280;57054;51.978;4.498;2023-03-03T04:11:07;102610.16;;;2.38;98.79
69784;BME280;57054;51.978;4.498;2023-03-03T04:13:33;102610.16;;;2.38;99.08
69784;BME280;57054;51.978;4.498;2023-03-03T04:16:00;102610.16;;;2.38;99.29
69784;BME280;57054;51.978;4.498;2023-03-03T04:18:25;102610.16;;;2.38;99.36
69784;BME280;57054;51.978;4.498;2023-03-03T04:20:51;102612.72;;;2.37;99.62
69784;BME280;57054;51.978;4.498;2023-03-03T04:23:18;102608.38;;;2.36;99.69
69784;BME280;57054;51.978;4.498;2023-03-03T04:25:47;102604.97;;;2.37;99.80
69784;BME280;57054;51.978;4.498;2023-03-03T04:28:13;102617.91;;;2.38;99.82
69784;BME280;57054;51.978;4.498;2023-03-03T04:30:39;102617.13;;;2.41;100.00
69784;BME280;57054;51.978;4.498;2023-03-03T04:33:05;102611.13;;;2.43;100.00
69784;BME280;57054;51.978;4.498;2023-03-03T04:35:30;102611.25;;;2.48;100.00
69784;BME280;57054;51.978;4.498;2023-03-03T04:37:55;102616.50;;;2.53;100.00
69784;BME280;57054;51.978;4.498;2023-03-03T04:40:21;102616.56;;;2.56;100.00
69784;BME280;57054;51.978;4.498;2023-03-03T04:42:47;102616.59;;;2.57;100.00
69784;BME280;57054;51.978;4.498;2023-03-03T04:45:12;102614.91;;;2.59;99.96
69784;BME280;57054;51.978;4.498;2023-03-03T04:47:37;102612.38;;;2.61;99.95
69784;BME280;57054;51.978;4.498;2023-03-03T04:50:03;102616.72;;;2.63;99.95
69784;BME280;57054;51.978;4.498;2023-03-03T04:52:29;102619.34;;;2.65;99.96
69784;BME280;57054;51.978;4.498;2023-03-03T04:54:54;102619.34;;;2.65;99.80
69784;BME280;57054;51.978;4.498;2023-03-03T04:57:20;102621.06;;;2.64;99.78
69784;BME280;57054;51.978;4.498;2023-03-03T04:59:45;102621.91;;;2.63;99.60
69784;BME280;57054;51.978;4.498;2023-03-03T05:02:10;102624.47;;;2.63;99.59
69784;BME280;57054;51.978;4.498;2023-03-03T05:04:37;102628.78;;;2.63;99.56
69784;BME280;57054;51.978;4.498;2023-03-03T05:07:03;102628.78;;;2.63;99.73
69784;BME280;57054;51.978;4.498;2023-03-03T05:09:28;102627.03;;;2.62;99.66
69784;BME280;57054;51.978;4.498;2023-03-03T05:11:54;102633.97;;;2.63;99.72
69784;BME280;57054;51.978;4.498;2023-03-03T05:14:19;102636.59;;;2.64;99.79
69784;BME280;57054;51.978;4.498;2023-03-03T05:16:45;102629.69;;;2.65;99.81
69784;BME280;57054;51.978;4.498;2023-03-03T05:19:10;102635.72;;;2.65;99.80
69784;BME280;57054;51.978;4.498;2023-03-03T05:21:36;102634.88;;;2.65;99.93
69784;BME280;57054;51.978;4.498;2023-03-03T05:24:01;102637.50;;;2.66;99.83
69784;BME280;57054;51.978;4.498;2023-03-03T05:26:27;102632.28;;;2.65;99.79
69784;BME280;57054;51.978;4.498;2023-03-03T05:28:52;102636.56;;;2.63;99.62
69784;BME280;57054;51.978;4.498;2023-03-03T05:31:17;102628.78;;;2.63;100.00
69784;BME280;57054;51.978;4.498;2023-03-03T05:33:43;102633.03;;;2.59;99.73
69784;BME280;57054;51.978;4.498;2023-03-03T05:36:08;102624.31;;;2.56;100.00
69784;BME280;57054;51.978;4.498;2023-03-03T05:38:34;102625.16;;;2.55;99.86
69784;BME280;57054;51.978;4.498;2023-03-03T05:40:59;102626.00;;;2.54;100.00
69784;BME280;57054;51.978;4.498;2023-03-03T05:43:24;102627.75;;;2.53;100.00
69784;BME280;57054;51.978;4.498;2023-03-03T05:45:55;102625.19;;;2.56;100.00
69784;BME280;57054;51.978;4.498;2023-03-03T05:48:21;102626.09;;;2.58;100.00
69784;BME280;57054;51.978;4.498;2023-03-03T05:50:46;102627.00;;;2.59;100.00
69784;BME280;57054;51.978;4.498;2023-03-03T05:53:11;102623.63;;;2.63;100.00
69784;BME280;57054;51.978;4.498;2023-03-03T05:55:37;102630.59;;;2.67;100.00
69784;BME280;57054;51.978;4.498;2023-03-03T05:58:02;102622.00;;;2.68;100.00
69784;BME280;57054;51.978;4.498;2023-03-03T06:00:27;102621.91;;;2.63;100.00
69784;BME280;57054;51.978;4.498;2023-03-03T06:02:53;102628.72;;;2.60;100.00
69784;BME280;57054;51.978;4.498;2023-03-03T06:05:18;102632.13;;;2.57;100.00
69784;BME280;57054;51.978;4.498;2023-03-03T06:07:44;102634.69;;;2.56;100.00
69784;BME280;57054;51.978;4.498;2023-03-03T06:10:09;102636.31;;;2.52;100.00
69784;BME280;57054;51.978;4.498;2023-03-03T06:12:35;102635.41;;;2.50;100.00
69784;BME280;57054;51.978;4.498;2023-03-03T06:15:01;102635.38;;;2.48;100.00
69784;BME280;57054;51.978;4.498;2023-03-03T06:17:27;102638.78;;;2.46;100.00
69784;BME280;57054;51.978;4.498;2023-03-03T06:19:52;102642.19;;;2.45;100.00
69784;BME280;57054;51.978;4.498;2023-03-03T06:22:18;102643.06;;;2.45;100.00
69784;BME280;57054;51.978;4.498;2023-03-03T06:24:43;102638.78;;;2.46;100.00
69784;BME280;57054;51.978;4.498;2023-03-03T06:27:09;102650.91;;;2.48;100.00
69784;BME280;57054;51.978;4.498;2023-03-03T06:29:34;102654.34;;;2.49;100.00
69784;BME280;57054;51.978;4.498;2023-03-03T06:31:59;102654.44;;;2.52;100.00
69784;BME280;57054;51.978;4.498;2023-03-03T06:34:25;102655.28;;;2.51;100.00
69784;BME280;57054;51.978;4.498;2023-03-03T06:36:50;102651.81;;;2.50;100.00
69784;BME280;57054;51.978;4.498;2023-03-03T06:39:16;102658.78;;;2.53;100.00
69784;BME280;57054;51.978;4.498;2023-03-03T06:41:42;102657.06;;;2.54;100.00
69784;BME280;57054;51.978;4.498;2023-03-03T06:44:07;102657.94;;;2.56;100.00
69784;BME280;57054;51.978;4.498;2023-03-03T06:46:32;102658.84;;;2.58;100.00
69784;BME280;57054;51.978;4.498;2023-03-03T06:48:58;102662.34;;;2.60;100.00
69784;BME280;57054;51.978;4.498;2023-03-03T06:53:55;102664.06;;;2.59;100.00
69784;BME280;57054;51.978;4.498;2023-03-03T06:56:23;102671.78;;;2.58;100.00
69784;BME280;57054;51.978;4.498;2023-03-03T06:58:53;102679.50;;;2.56;100.00
69784;BME280;57054;51.978;4.498;2023-03-03T07:01:20;102678.56;;;2.53;100.00
69784;BME280;57054;51.978;4.498;2023-03-03T07:03:45;102678.50;;;2.48;100.00
69784;BME280;57054;51.978;4.498;2023-03-03T07:06:24;102677.53;;;2.44;100.00
69784;BME280;57054;51.978;4.498;2023-03-03T07:08:53;102685.31;;;2.44;100.00
69784;BME280;57054;51.978;4.498;2023-03-03T07:11:20;102687.06;;;2.47;100.00
69784;BME280;57054;51.978;4.498;2023-03-03T07:13:51;102695.78;;;2.50;100.00
69784;BME280;57054;51.978;4.498;2023-03-03T07:16:18;102689.00;;;2.56;100.00
69784;BME280;57054;51.978;4.498;2023-03-03T07:21:16;102702.13;;;2.65;100.00
69784;BME280;57054;51.978;4.498;2023-03-03T07:23:43;102697.84;;;2.67;100.00
69784;BME280;57054;51.978;4.498;2023-03-03T07:26:14;102707.41;;;2.69;100.00
69784;BME280;57054;51.978;4.498;2023-03-03T07:28:41;102706.56;;;2.71;100.00
69784;BME280;57054;51.978;4.498;2023-03-03T07:31:28;102699.69;;;2.71;100.00
69784;BME280;57054;51.978;4.498;2023-03-03T07:33:56;102703.97;;;2.71;100.00
69784;BME280;57054;51.978;4.498;2023-03-03T07:36:28;102700.56;;;2.72;100.00
69784;BME280;57054;51.978;4.498;2023-03-03T07:38:56;102713.53;;;2.73;100.00
69784;BME280;57054;51.978;4.498;2023-03-03T07:41:22;102704.91;;;2.74;100.00
69784;BME280;57054;51.978;4.498;2023-03-03T07:44:20;102711.00;;;2.76;100.00
69784;BME280;57054;51.978;4.498;2023-03-03T07:46:47;102711.06;;;2.79;100.00
69784;BME280;57054;51.978;4.498;2023-03-03T07:49:33;102710.25;;;2.80;100.00
69784;BME280;57054;51.978;4.498;2023-03-03T07:52:00;102704.16;;;2.80;100.00
69784;BME280;57054;51.978;4.498;2023-03-03T07:56:58;102718.94;;;2.84;100.00
69784;BME280;57054;51.978;4.498;2023-03-03T07:59:26;102725.88;;;2.86;100.00
69784;BME280;57054;51.978;4.498;2023-03-03T08:01:55;102729.38;;;2.88;100.00
69784;BME280;57054;51.978;4.498;2023-03-03T08:07:09;102729.44;;;2.92;100.00
69784;BME280;57054;51.978;4.498;2023-03-03T08:09:37;102727.66;;;2.89;100.00
69784;BME280;57054;51.978;4.498;2023-03-03T08:14:36;102739.78;;;2.90;100.00
69784;BME280;57054;51.978;4.498;2023-03-03T08:17:19;102740.66;;;2.92;100.00
69784;BME280;57054;51.978;4.498;2023-03-03T08:19:46;102747.63;;;2.95;100.00
69784;BME280;57054;51.978;4.498;2023-03-03T08:22:15;102754.56;;;2.96;100.00
69784;BME280;57054;51.978;4.498;2023-03-03T08:24:42;102752.88;;;2.98;100.00
69784;BME280;57054;51.978;4.498;2023-03-03T08:27:07;102752.91;;;2.99;100.00
69784;BME280;57054;51.978;4.498;2023-03-03T08:29:32;102760.72;;;3.01;100.00
69784;BME280;57054;51.978;4.498;2023-03-03T08:31:58;102757.28;;;3.03;100.00
69784;BME280;57054;51.978;4.498;2023-03-03T08:34:23;102753.88;;;3.04;100.00
69784;BME280;57054;51.978;4.498;2023-03-03T08:36:48;102768.56;;;3.05;100.00
69784;BME280;57054;51.978;4.498;2023-03-03T08:39:14;102769.44;;;3.06;100.00
69784;BME280;57054;51.978;4.498;2023-03-03T08:41:39;102766.03;;;3.08;100.00
69784;BME280;57054;51.978;4.498;2023-03-03T08:44:08;102766.94;;;3.11;100.00
69784;BME280;57054;51.978;4.498;2023-03-03T08:46:33;102768.72;;;3.12;100.00
69784;BME280;57054;51.978;4.498;2023-03-03T08:48:58;102760.97;;;3.13;100.00
69784;BME280;57054;51.978;4.498;2023-03-03T08:51:24;102772.22;;;3.15;100.00
69784;BME280;57054;51.978;4.498;2023-03-03T08:53:51;102773.22;;;3.20;100.00
69784;BME280;57054;51.978;4.498;2023-03-03T08:56:16;102772.41;;;3.24;100.00
69784;BME280;57054;51.978;4.498;2023-03-03T08:58:42;102778.47;;;3.25;100.00
69784;BME280;57054;51.978;4.498;2023-03-03T09:01:13;102774.19;;;3.27;100.00
69784;BME280;57054;51.978;4.498;2023-03-03T09:03:38;102780.28;;;3.29;100.00
69784;BME280;57054;51.978;4.498;2023-03-03T09:06:03;102771.75;;;3.33;100.00
69784;BME280;57054;51.978;4.498;2023-03-03T09:08:29;102771.78;;;3.35;100.00
69784;BME280;57054;51.978;4.498;2023-03-03T09:10:54;102780.50;;;3.40;100.00
69784;BME280;57054;51.978;4.498;2023-03-03T09:13:20;102780.59;;;3.44;100.00
69784;BME280;57054;51.978;4.498;2023-03-03T09:15:46;102768.53;;;3.46;100.00
69784;BME280;57054;51.978;4.498;2023-03-03T09:18:15;102775.50;;;3.49;100.00
69784;BME280;57054;51.978;4.498;2023-03-03T09:20:44;102779.88;;;3.52;100.00
69784;BME280;57054;51.978;4.498;2023-03-03T09:23:37;102777.34;;;3.55;100.00
69784;BME280;57054;51.978;4.498;2023-03-03T09:26:42;102775.66;;;3.58;100.00
69784;BME280;57054;51.978;4.498;2023-03-03T09:31:52;102780.94;;;3.63;100.00
69784;BME280;57054;51.978;4.498;2023-03-03T09:36:53;102774.13;;;3.67;100.00
69784;BME280;57054;51.978;4.498;2023-03-03T09:39:27;102782.78;;;3.69;100.00
69784;BME280;57054;51.978;4.498;2023-03-03T09:44:42;102776.81;;;3.73;100.00
69784;BME280;57054;51.978;4.498;2023-03-03T09:50:33;102776.06;;;3.80;100.00
69784;BME280;57054;51.978;4.498;2023-03-03T09:55:40;102771.84;;;3.85;100.00
69784;BME280;57054;51.978;4.498;2023-03-03T10:01:41;102774.59;;;3.91;100.00
69784;BME280;57054;51.978;4.498;2023-03-03T10:04:38;102776.38;;;3.95;100.00
69784;BME280;57054;51.978;4.498;2023-03-03T10:07:27;102784.22;;;3.98;100.00
69784;BME280;57054;51.978;4.498;2023-03-03T10:20:46;102781.78;;;4.09;100.00
69784;BME280;57054;51.978;4.498;2023-03-03T10:23:38;102777.53;;;4.13;100.00
69784;BME280;57054;51.978;4.498;2023-03-03T10:26:59;102780.22;;;4.17;100.00
69784;BME280;57054;51.978;4.498;2023-03-03T10:29:18;102774.22;;;4.21;100.00
69784;BME280;57054;51.978;4.498;2023-03-03T10:37:51;102783.88;;;4.30;100.00
69784;BME280;57054;51.978;4.498;2023-03-03T10:41:07;102780.47;;;4.34;100.00
69784;BME280;57054;51.978;4.498;2023-03-03T10:49:21;102772.94;;;4.48;100.00
69784;BME280;57054;51.978;4.498;2023-03-03T10:57:31;102781.72;;;4.58;98.06
69784;BME280;57054;51.978;4.498;2023-03-03T11:02:51;102781.03;;;4.70;97.11
69784;BME280;57054;51.978;4.498;2023-03-03T11:05:42;102774.16;;;4.73;96.45
69784;BME280;57054;51.978;4.498;2023-03-03T11:08:13;102772.50;;;4.77;96.08
69784;BME280;57054;51.978;4.498;2023-03-03T11:14:12;102764.78;;;4.83;94.65
69784;BME280;57054;51.978;4.498;2023-03-03T11:16:29;102774.31;;;4.86;93.39
69784;BME280;57054;51.978;4.498;2023-03-03T11:21:59;102770.09;;;4.92;92.25
69784;BME280;57054;51.978;4.498;2023-03-03T11:32:52;102765.09;;;5.06;91.64
69784;BME280;57054;51.978;4.498;2023-03-03T11:35:44;102760.84;;;5.11;91.47
69784;BME280;57054;51.978;4.498;2023-03-03T11:40:53;102760.97;;;5.21;89.21
69784;BME280;57054;51.978;4.498;2023-03-03T11:43:30;102761.00;;;5.22;88.74
69784;BME280;57054;51.978;4.498;2023-03-03T11:46:06;102761.91;;;5.26;89.08
69784;BME280;57054;51.978;4.498;2023-03-03T11:48:42;102756.72;;;5.29;89.02
69784;BME280;57054;51.978;4.498;2023-03-03T11:51:26;102755.94;;;5.36;89.85
69784;BME280;57054;51.978;4.498;2023-03-03T11:54:00;102753.44;;;5.42;88.03
69784;BME280;57054;51.978;4.498;2023-03-03T11:56:42;102752.59;;;5.46;87.57
69784;BME280;57054;51.978;4.498;2023-03-03T12:02:27;102750.03;;;5.48;86.72
69784;BME280;57054;51.978;4.498;2023-03-03T12:05:06;102749.13;;;5.46;87.17
69784;BME280;57054;51.978;4.498;2023-03-03T12:08:08;102749.09;;;5.43;86.81
69784;BME280;57054;51.978;4.498;2023-03-03T12:10:57;102741.25;;;5.39;86.51
69784;BME280;57054;51.978;4.498;2023-03-03T12:18:34;102749.91;;;5.38;85.79
69784;BME280;57054;51.978;4.498;2023-03-03T12:21:29;102741.22;;;5.36;85.55
69784;BME280;57054;51.978;4.498;2023-03-03T12:29:31;102738.63;;;5.35;85.24
69784;BME280;57054;51.978;4.498;2023-03-03T12:34:52;102732.53;;;5.34;84.58
69784;BME280;57054;51.978;4.498;2023-03-03T12:40:33;102730.81;;;5.36;82.71
69784;BME280;57054;51.978;4.498;2023-03-03T12:43:28;102722.16;;;5.36;81.48
69784;BME280;57054;51.978;4.498;2023-03-03T12:48:49;102720.41;;;5.33;81.32
69784;BME280;57054;51.978;4.498;2023-03-03T12:56:54;102722.97;;;5.32;81.21
69784;BME280;57054;51.978;4.498;2023-03-03T12:59:50;102724.75;;;5.36;80.71
69784;BME280;57054;51.978;4.498;2023-03-03T13:05:28;102709.31;;;5.48;80.14
69784;BME280;57054;51.978;4.498;2023-03-03T13:16:07;102711.22;;;5.69;78.17
69784;BME280;57054;51.978;4.498;2023-03-03T13:26:48;102709.53;;;5.73;77.63
69784;BME280;57054;51.978;4.498;2023-03-03T13:29:25;102700.03;;;5.73;76.89
69784;BME280;57054;51.978;4.498;2023-03-03T13:31:59;102710.44;;;5.73;76.15
69784;BME280;57054;51.978;4.498;2023-03-03T13:34:36;102700.88;;;5.74;75.98
69784;BME280;57054;51.978;4.498;2023-03-03T13:37:26;102707.81;;;5.73;75.40
69784;BME280;57054;51.978;4.498;2023-03-03T13:40:20;102712.16;;;5.74;75.84
69784;BME280;57054;51.978;4.498;2023-03-03T13:43:14;102708.72;;;5.75;76.59
69784;BME280;57054;51.978;4.498;2023-03-03T13:48:31;102695.75;;;5.79;76.89
69784;BME280;57054;51.978;4.498;2023-03-03T13:51:08;102706.13;;;5.80;77.00
69784;BME280;57054;51.978;4.498;2023-03-03T13:53:48;102701.84;;;5.82;78.02
69784;BME280;57054;51.978;4.498;2023-03-03T13:56:38;102701.81;;;5.81;77.51
69784;BME280;57054;51.978;4.498;2023-03-03T13:59:22;102699.22;;;5.84;77.44
69784;BME280;57054;51.978;4.498;2023-03-03T14:07:32;102693.19;;;5.85;77.54
69784;BME280;57054;51.978;4.498;2023-03-03T14:10:12;102691.44;;;5.85;77.79
69784;BME280;57054;51.978;4.498;2023-03-03T14:15:26;102694.91;;;5.84;77.11
69784;BME280;57054;51.978;4.498;2023-03-03T14:20:22;102689.75;;;5.86;77.93
69784;BME280;57054;51.978;4.498;2023-03-03T14:23:01;102694.94;;;5.86;77.67
69784;BME280;57054;51.978;4.498;2023-03-03T14:28:21;102694.03;;;5.85;77.36
69784;BME280;57054;51.978;4.498;2023-03-03T14:30:47;102690.59;;;5.85;77.55
69784;BME280;57054;51.978;4.498;2023-03-03T14:35:43;102694.03;;;5.82;78.39
69784;BME280;57054;51.978;4.498;2023-03-03T14:38:25;102690.53;;;5.82;78.14
69784;BME280;57054;51.978;4.498;2023-03-03T14:41:20;102689.69;;;5.81;78.06
69784;BME280;57054;51.978;4.498;2023-03-03T14:44:46;102696.63;;;5.81;78.15
69784;BME280;57054;51.978;4.498;2023-03-03T14:46:43;102687.06;;;5.78;78.21
69784;BME280;57054;51.978;4.498;2023-03-03T14:49:15;102694.88;;;5.80;78.49
69784;BME280;57054;51.978;4.498;2023-03-03T14:51:50;102698.31;;;5.77;78.30
69784;BME280;57054;51.978;4.498;2023-03-03T14:54:23;102695.69;;;5.75;77.60
69784;BME280;57054;51.978;4.498;2023-03-03T14:57:02;102687.88;;;5.74;78.14
69784;BME280;57054;51.978;4.498;2023-03-03T14:59:31;102693.06;;;5.72;77.71
69784;BME280;57054;51.978;4.498;2023-03-03T15:04:41;102680.91;;;5.68;77.87
69784;BME280;57054;51.978;4.498;2023-03-03T15:07:34;102685.25;;;5.68;78.05
69784;BME280;57054;51.978;4.498;2023-03-03T15:10:07;102686.06;;;5.65;77.76
69784;BME280;57054;51.978;4.498;2023-03-03T15:12:33;102686.06;;;5.65;78.04
69784;BME280;57054;51.978;4.498;2023-03-03T15:17:34;102686.97;;;5.66;78.26
69784;BME280;57054;51.978;4.498;2023-03-03T15:20:41;102681.75;;;5.64;77.18
69784;BME280;57054;51.978;4.498;2023-03-03T15:41:44;102668.66;;;5.55;76.71
69784;BME280;57054;51.978;4.498;2023-03-03T15:44:21;102658.25;;;5.53;76.69
69784;BME280;57054;51.978;4.498;2023-03-03T15:46:52;102663.44;;;5.53;76.91
69784;BME280;57054;51.978;4.498;2023-03-03T15:55:19;102652.16;;;5.51;76.03
69784;BME280;57054;51.978;4.498;2023-03-03T16:03:20;102649.50;;;5.47;75.66
69784;BME280;57054;51.978;4.498;2023-03-03T16:05:55;102659.88;;;5.45;75.35
69784;BME280;57054;51.978;4.498;2023-03-03T16:13:57;102659.88;;;5.44;75.42
69784;BME280;57054;51.978;4.498;2023-03-03T16:16:42;102666.81;;;5.43;75.01
69784;BME280;57054;51.978;4.498;2023-03-03T16:22:18;102674.56;;;5.42;75.74
69784;BME280;57054;51.978;4.498;2023-03-03T16:30:26;102667.59;;;5.36;75.68
69784;BME280;57054;51.978;4.498;2023-03-03T16:36:09;102671.03;;;5.32;75.85
69784;BME280;57054;51.978;4.498;2023-03-03T16:38:51;102668.38;;;5.29;75.44
69784;BME280;57054;51.978;4.498;2023-03-03T16:41:24;102675.28;;;5.27;75.62
69784;BME280;57054;51.978;4.498;2023-03-03T16:44:20;102663.13;;;5.23;74.72